createdAt,value
2023-03-11T00:00:00.000Z,7
2023-03-11T00:15:00.000Z,7.06
2023-03-11T00:30:00.000Z,5.25
2023-03-11T00:45:00.000Z,5.29
2023-03-11T01:00:00.000Z,5.21
2023-03-11T01:15:00.000Z,5.19
2023-03-11T01:30:00.000Z,5.72
2023-03-11T01:45:00.000Z,5.18
2023-03-11T02:00:00.000Z,6.12
2023-03-11T02:15:00.000Z,5.09
2023-03-11T02:30:00.000Z,5.11
2023-03-11T02:45:00.000Z,5.33
2023-03-11T03:00:00.000Z,5.42
2023-03-11T03:15:00.000Z,5.12
2023-03-11T03:30:00.000Z,5.39
2023-03-11T03:45:00.000Z,6.12
2023-03-11T04:00:00.000Z,7.06
2023-03-11T04:15:00.000Z,7.21
2023-03-11T04:30:00.000Z,4.86
2023-03-11T04:45:00.000Z,4.53
2023-03-11T05:00:00.000Z,4.82
2023-03-11T05:15:00.000Z,4.75
2023-03-11T05:30:00.000Z,5.4
2023-03-11T05:45:00.000Z,5.02
2023-03-11T06:00:00.000Z,5.06
2023-03-11T06:15:00.000Z,6.04
2023-03-11T06:30:00.000Z,5.56
2023-03-11T06:45:00.000Z,13.67
2023-03-11T07:00:00.000Z,5.66
2023-03-11T07:15:00.000Z,5.34
2023-03-11T07:30:00.000Z,7.92
2023-03-11T07:45:00.000Z,8.07
2023-03-11T08:00:00.000Z,11.58
2023-03-11T08:15:00.000Z,19
2023-03-11T08:30:00.000Z,9
2023-03-11T08:45:00.000Z,7.89
2023-03-11T09:00:00.000Z,8.73
2023-03-11T09:15:00.000Z,7.36
2023-03-11T09:30:00.000Z,7.42
2023-03-11T09:45:00.000Z,7.33
2023-03-11T10:00:00.000Z,7.46
2023-03-11T10:15:00.000Z,7.24
2023-03-11T10:30:00.000Z,7.06
2023-03-11T10:45:00.000Z,9.21
2023-03-11T11:00:00.000Z,7.33
2023-03-11T11:15:00.000Z,7.34
2023-03-11T11:30:00.000Z,7
2023-03-11T11:45:00.000Z,7.36
2023-03-11T12:00:00.000Z,7.28
2023-03-11T12:15:00.000Z,10.3
2023-03-11T12:30:00.000Z,7.16
2023-03-11T12:45:00.000Z,7.41
2023-03-11T13:00:00.000Z,7.09
2023-03-11T13:15:00.000Z,11.94
2023-03-11T13:30:00.000Z,19.79
2023-03-11T13:45:00.000Z,8.04
2023-03-11T14:00:00.000Z,7.28
2023-03-11T14:15:00.000Z,7.66
2023-03-11T14:30:00.000Z,9.87
2023-03-11T14:45:00.000Z,10.6
2023-03-11T15:00:00.000Z,7.66
2023-03-11T15:15:00.000Z,7.13
2023-03-11T15:30:00.000Z,7.2
2023-03-11T15:45:00.000Z,7.19
2023-03-11T16:00:00.000Z,7.36
2023-03-11T16:15:00.000Z,7.35
2023-03-11T16:30:00.000Z,9.29
2023-03-11T16:45:00.000Z,8.38
2023-03-11T17:00:00.000Z,8.86
2023-03-11T17:15:00.000Z,8.04
2023-03-11T17:30:00.000Z,8.53
2023-03-11T17:45:00.000Z,8.35
2023-03-11T18:00:00.000Z,10.18
2023-03-11T18:15:00.000Z,11.88
2023-03-11T18:30:00.000Z,13.8
2023-03-11T18:45:00.000Z,7.71
2023-03-11T19:00:00.000Z,9.34
2023-03-11T19:15:00.000Z,14.58
2023-03-11T19:30:00.000Z,20.75
2023-03-11T19:45:00.000Z,11.85
2023-03-11T20:00:00.000Z,12.93
2023-03-11T20:15:00.000Z,14.14
2023-03-11T20:30:00.000Z,15.92
2023-03-11T20:45:00.000Z,18.01
2023-03-11T21:00:00.000Z,20.76
2023-03-11T21:15:00.000Z,19.31
2023-03-11T21:30:00.000Z,16.39
2023-03-11T21:45:00.000Z,15.61
2023-03-11T22:00:00.000Z,14.51
2023-03-11T22:15:00.000Z,15.25
2023-03-11T22:30:00.000Z,17.13
2023-03-11T22:45:00.000Z,16.94
2023-03-11T23:00:00.000Z,19.41
2023-03-11T23:15:00.000Z,24.35
2023-03-11T23:30:00.000Z,27.32
2023-03-11T23:45:00.000Z,24.53
